sensor_id;sensor_type;location;lat;lon;timestamp;P1;durP1;ratioP1;P2;durP2;ratioP2
37593;SDS011;23441;50.856;6.076;2023-08-24T00:00:16;7.30;;;4.50;;
37593;SDS011;23441;50.856;6.076;2023-08-24T00:02:42;7.93;;;4.38;;
37593;SDS011;23441;50.856;6.076;2023-08-24T00:05:07;5.10;;;3.78;;
37593;SDS011;23441;50.856;6.076;2023-08-24T00:07:33;11.15;;;4.60;;
37593;SDS011;23441;50.856;6.076;2023-08-24T00:09:59;6.50;;;4.28;;
37593;SDS011;23441;50.856;6.076;2023-08-24T00:12:24;11.15;;;4.78;;
37593;SDS011;23441;50.856;6.076;2023-08-24T00:14:50;7.20;;;4.25;;
37593;SDS011;23441;50.856;6.076;2023-08-24T00:17:17;5.30;;;3.60;;
37593;SDS011;23441;50.856;6.076;2023-08-24T00:19:42;9.15;;;4.32;;
37593;SDS011;23441;50.856;6.076;2023-08-24T00:22:08;5.07;;;3.83;;
37593;SDS011;23441;50.856;6.076;2023-08-24T00:24:34;6.80;;;4.43;;
37593;SDS011;23441;50.856;6.076;2023-08-24T00:26:59;6.47;;;3.95;;
37593;SDS011;23441;50.856;6.076;2023-08-24T00:29:25;9.40;;;4.22;;
37593;SDS011;23441;50.856;6.076;2023-08-24T00:31:51;6.45;;;4.45;;
37593;SDS011;23441;50.856;6.076;2023-08-24T00:34:16;9.38;;;4.35;;
37593;SDS011;23441;50.856;6.076;2023-08-24T00:36:42;8.30;;;3.58;;
37593;SDS011;23441;50.856;6.076;2023-08-24T00:39:08;6.40;;;4.00;;
37593;SDS011;23441;50.856;6.076;2023-08-24T00:41:33;6.38;;;4.25;;
37593;SDS011;23441;50.856;6.076;2023-08-24T00:43:59;11.52;;;4.38;;
37593;SDS011;23441;50.856;6.076;2023-08-24T00:46:25;6.95;;;4.13;;
37593;SDS011;23441;50.856;6.076;2023-08-24T00:48:52;8.38;;;4.15;;
37593;SDS011;23441;50.856;6.076;2023-08-24T00:51:21;6.50;;;4.18;;
37593;SDS011;23441;50.856;6.076;2023-08-24T00:53:47;8.38;;;4.80;;
37593;SDS011;23441;50.856;6.076;2023-08-24T00:56:13;8.20;;;3.85;;
37593;SDS011;23441;50.856;6.076;2023-08-24T00:58:39;11.20;;;4.57;;
37593;SDS011;23441;50.856;6.076;2023-08-24T01:01:05;6.55;;;4.10;;
37593;SDS011;23441;50.856;6.076;2023-08-24T01:03:30;9.02;;;4.18;;
37593;SDS011;23441;50.856;6.076;2023-08-24T01:05:57;8.63;;;4.28;;
37593;SDS011;23441;50.856;6.076;2023-08-24T01:08:22;5.30;;;3.83;;
37593;SDS011;23441;50.856;6.076;2023-08-24T01:10:55;12.35;;;4.47;;
37593;SDS011;23441;50.856;6.076;2023-08-24T01:13:30;6.65;;;4.35;;
37593;SDS011;23441;50.856;6.076;2023-08-24T01:16:12;8.23;;;4.40;;
37593;SDS011;23441;50.856;6.076;2023-08-24T01:18:41;5.72;;;4.10;;
37593;SDS011;23441;50.856;6.076;2023-08-24T01:21:08;9.77;;;4.90;;
37593;SDS011;23441;50.856;6.076;2023-08-24T01:28:39;9.32;;;4.13;;
37593;SDS011;23441;50.856;6.076;2023-08-24T01:31:06;6.65;;;4.13;;
37593;SDS011;23441;50.856;6.076;2023-08-24T01:33:32;7.90;;;4.15;;
37593;SDS011;23441;50.856;6.076;2023-08-24T01:35:58;6.63;;;4.28;;
37593;SDS011;23441;50.856;6.076;2023-08-24T01:38:24;5.35;;;3.97;;
37593;SDS011;23441;50.856;6.076;2023-08-24T01:43:51;9.82;;;4.35;;
37593;SDS011;23441;50.856;6.076;2023-08-24T01:46:19;8.20;;;4.20;;
37593;SDS011;23441;50.856;6.076;2023-08-24T01:48:47;9.65;;;4.20;;
37593;SDS011;23441;50.856;6.076;2023-08-24T01:51:14;8.73;;;3.78;;
37593;SDS011;23441;50.856;6.076;2023-08-24T01:53:40;8.82;;;4.10;;
37593;SDS011;23441;50.856;6.076;2023-08-24T01:56:13;6.80;;;3.88;;
37593;SDS011;23441;50.856;6.076;2023-08-24T02:05:24;7.18;;;4.28;;
37593;SDS011;23441;50.856;6.076;2023-08-24T02:07:52;6.88;;;4.05;;
37593;SDS011;23441;50.856;6.076;2023-08-24T02:10:19;8.90;;;4.05;;
37593;SDS011;23441;50.856;6.076;2023-08-24T02:12:44;5.00;;;3.47;;
37593;SDS011;23441;50.856;6.076;2023-08-24T02:15:10;6.38;;;3.53;;
37593;SDS011;23441;50.856;6.076;2023-08-24T02:17:36;5.72;;;3.80;;
37593;SDS011;23441;50.856;6.076;2023-08-24T02:20:01;5.15;;;3.50;;
37593;SDS011;23441;50.856;6.076;2023-08-24T02:22:28;7.30;;;3.70;;
37593;SDS011;23441;50.856;6.076;2023-08-24T02:24:55;5.85;;;3.50;;
37593;SDS011;23441;50.856;6.076;2023-08-24T02:27:20;7.05;;;3.70;;
37593;SDS011;23441;50.856;6.076;2023-08-24T02:29:46;6.63;;;3.55;;
37593;SDS011;23441;50.856;6.076;2023-08-24T02:32:12;5.57;;;3.67;;
37593;SDS011;23441;50.856;6.076;2023-08-24T02:34:37;5.20;;;3.28;;
37593;SDS011;23441;50.856;6.076;2023-08-24T02:37:04;5.68;;;3.75;;
37593;SDS011;23441;50.856;6.076;2023-08-24T02:39:29;4.60;;;3.40;;
37593;SDS011;23441;50.856;6.076;2023-08-24T02:41:55;4.30;;;3.38;;
37593;SDS011;23441;50.856;6.076;2023-08-24T02:44:20;6.47;;;3.38;;
37593;SDS011;23441;50.856;6.076;2023-08-24T02:46:47;9.23;;;3.53;;
37593;SDS011;23441;50.856;6.076;2023-08-24T02:49:13;7.13;;;3.53;;
37593;SDS011;23441;50.856;6.076;2023-08-24T02:51:39;10.05;;;3.80;;
37593;SDS011;23441;50.856;6.076;2023-08-24T02:54:05;6.15;;;3.35;;
37593;SDS011;23441;50.856;6.076;2023-08-24T02:56:31;5.72;;;3.53;;
37593;SDS011;23441;50.856;6.076;2023-08-24T02:58:57;6.10;;;3.25;;
37593;SDS011;23441;50.856;6.076;2023-08-24T03:01:22;7.63;;;3.33;;
37593;SDS011;23441;50.856;6.076;2023-08-24T03:03:48;6.75;;;3.72;;
37593;SDS011;23441;50.856;6.076;2023-08-24T03:06:14;7.72;;;3.55;;
37593;SDS011;23441;50.856;6.076;2023-08-24T03:08:40;9.63;;;3.40;;
37593;SDS011;23441;50.856;6.076;2023-08-24T03:11:05;9.52;;;3.65;;
37593;SDS011;23441;50.856;6.076;2023-08-24T03:13:31;6.68;;;3.00;;
37593;SDS011;23441;50.856;6.076;2023-08-24T03:15:57;4.38;;;3.03;;
37593;SDS011;23441;50.856;6.076;2023-08-24T03:18:22;6.80;;;3.40;;
37593;SDS011;23441;50.856;6.076;2023-08-24T03:20:48;5.13;;;3.35;;
37593;SDS011;23441;50.856;6.076;2023-08-24T03:23:15;3.58;;;3.00;;
37593;SDS011;23441;50.856;6.076;2023-08-24T03:25:41;6.95;;;3.15;;
37593;SDS011;23441;50.856;6.076;2023-08-24T03:28:07;8.90;;;3.65;;
37593;SDS011;23441;50.856;6.076;2023-08-24T03:30:37;12.80;;;3.60;;
37593;SDS011;23441;50.856;6.076;2023-08-24T03:33:04;6.20;;;3.35;;
37593;SDS011;23441;50.856;6.076;2023-08-24T03:35:30;8.88;;;3.90;;
37593;SDS011;23441;50.856;6.076;2023-08-24T03:37:56;7.18;;;3.80;;
37593;SDS011;23441;50.856;6.076;2023-08-24T03:40:22;4.63;;;3.50;;
37593;SDS011;23441;50.856;6.076;2023-08-24T03:42:48;12.43;;;4.38;;
37593;SDS011;23441;50.856;6.076;2023-08-24T03:45:13;7.15;;;4.22;;
37593;SDS011;23441;50.856;6.076;2023-08-24T03:47:39;5.18;;;3.50;;
37593;SDS011;23441;50.856;6.076;2023-08-24T03:50:05;10.50;;;4.22;;
37593;SDS011;23441;50.856;6.076;2023-08-24T03:52:30;7.35;;;4.25;;
37593;SDS011;23441;50.856;6.076;2023-08-24T03:54:56;7.82;;;4.10;;
37593;SDS011;23441;50.856;6.076;2023-08-24T03:57:22;7.70;;;3.90;;
37593;SDS011;23441;50.856;6.076;2023-08-24T03:59:48;7.40;;;4.05;;
37593;SDS011;23441;50.856;6.076;2023-08-24T04:02:14;10.75;;;4.32;;
37593;SDS011;23441;50.856;6.076;2023-08-24T04:04:40;14.50;;;4.72;;
37593;SDS011;23441;50.856;6.076;2023-08-24T04:07:05;10.18;;;4.00;;
37593;SDS011;23441;50.856;6.076;2023-08-24T04:09:31;8.23;;;4.50;;
37593;SDS011;23441;50.856;6.076;2023-08-24T04:11:56;8.70;;;4.60;;
37593;SDS011;23441;50.856;6.076;2023-08-24T04:14:22;6.88;;;3.85;;
37593;SDS011;23441;50.856;6.076;2023-08-24T04:16:48;8.00;;;3.83;;
37593;SDS011;23441;50.856;6.076;2023-08-24T04:19:13;10.35;;;5.28;;
37593;SDS011;23441;50.856;6.076;2023-08-24T04:21:39;8.27;;;4.07;;
37593;SDS011;23441;50.856;6.076;2023-08-24T04:24:04;7.93;;;4.63;;
37593;SDS011;23441;50.856;6.076;2023-08-24T04:26:30;9.27;;;4.47;;
37593;SDS011;23441;50.856;6.076;2023-08-24T04:28:56;6.75;;;4.45;;
37593;SDS011;23441;50.856;6.076;2023-08-24T04:31:22;13.35;;;4.72;;
37593;SDS011;23441;50.856;6.076;2023-08-24T04:33:47;9.48;;;4.45;;
37593;SDS011;23441;50.856;6.076;2023-08-24T04:36:13;8.50;;;4.88;;
37593;SDS011;23441;50.856;6.076;2023-08-24T04:38:38;9.45;;;4.82;;
37593;SDS011;23441;50.856;6.076;2023-08-24T04:41:06;9.00;;;5.03;;
37593;SDS011;23441;50.856;6.076;2023-08-24T04:43:32;8.48;;;5.13;;
37593;SDS011;23441;50.856;6.076;2023-08-24T04:45:58;9.95;;;4.88;;
37593;SDS011;23441;50.856;6.076;2023-08-24T04:48:24;10.25;;;5.30;;
37593;SDS011;23441;50.856;6.076;2023-08-24T04:50:57;9.82;;;5.22;;
37593;SDS011;23441;50.856;6.076;2023-08-24T04:53:23;9.00;;;5.10;;
37593;SDS011;23441;50.856;6.076;2023-08-24T04:55:49;7.15;;;4.90;;
37593;SDS011;23441;50.856;6.076;2023-08-24T04:58:15;12.88;;;5.35;;
37593;SDS011;23441;50.856;6.076;2023-08-24T05:00:41;14.13;;;5.35;;
37593;SDS011;23441;50.856;6.076;2023-08-24T05:03:07;10.20;;;4.90;;
37593;SDS011;23441;50.856;6.076;2023-08-24T05:05:33;9.77;;;4.90;;
37593;SDS011;23441;50.856;6.076;2023-08-24T05:08:01;9.63;;;5.25;;
37593;SDS011;23441;50.856;6.076;2023-08-24T05:10:32;12.45;;;5.60;;
37593;SDS011;23441;50.856;6.076;2023-08-24T05:12:58;13.55;;;5.60;;
37593;SDS011;23441;50.856;6.076;2023-08-24T05:15:24;10.88;;;5.57;;
37593;SDS011;23441;50.856;6.076;2023-08-24T05:17:50;12.02;;;5.38;;
37593;SDS011;23441;50.856;6.076;2023-08-24T05:20:21;8.70;;;4.90;;
37593;SDS011;23441;50.856;6.076;2023-08-24T05:22:47;11.52;;;5.13;;
37593;SDS011;23441;50.856;6.076;2023-08-24T05:25:13;6.65;;;4.75;;
37593;SDS011;23441;50.856;6.076;2023-08-24T05:27:41;7.55;;;5.55;;
37593;SDS011;23441;50.856;6.076;2023-08-24T05:30:07;9.90;;;5.65;;
37593;SDS011;23441;50.856;6.076;2023-08-24T05:32:34;9.75;;;5.13;;
37593;SDS011;23441;50.856;6.076;2023-08-24T05:35:03;8.95;;;5.50;;
37593;SDS011;23441;50.856;6.076;2023-08-24T05:37:32;10.75;;;5.32;;
37593;SDS011;23441;50.856;6.076;2023-08-24T05:39:59;7.68;;;5.35;;
37593;SDS011;23441;50.856;6.076;2023-08-24T05:42:25;7.40;;;5.40;;
37593;SDS011;23441;50.856;6.076;2023-08-24T05:44:51;9.60;;;5.72;;
37593;SDS011;23441;50.856;6.076;2023-08-24T05:47:16;9.63;;;5.20;;
37593;SDS011;23441;50.856;6.076;2023-08-24T05:49:42;10.77;;;5.30;;
37593;SDS011;23441;50.856;6.076;2023-08-24T05:52:07;10.15;;;5.70;;
37593;SDS011;23441;50.856;6.076;2023-08-24T05:54:36;8.07;;;4.95;;
37593;SDS011;23441;50.856;6.076;2023-08-24T05:57:02;11.43;;;5.22;;
37593;SDS011;23441;50.856;6.076;2023-08-24T05:59:29;9.68;;;5.95;;
37593;SDS011;23441;50.856;6.076;2023-08-24T06:01:54;9.52;;;5.28;;
37593;SDS011;23441;50.856;6.076;2023-08-24T06:04:20;8.27;;;5.45;;
37593;SDS011;23441;50.856;6.076;2023-08-24T06:06:46;9.60;;;6.00;;
37593;SDS011;23441;50.856;6.076;2023-08-24T06:09:12;11.15;;;5.25;;
37593;SDS011;23441;50.856;6.076;2023-08-24T06:11:37;10.45;;;6.10;;
37593;SDS011;23441;50.856;6.076;2023-08-24T06:14:03;9.57;;;5.72;;
37593;SDS011;23441;50.856;6.076;2023-08-24T06:16:29;8.73;;;5.95;;
37593;SDS011;23441;50.856;6.076;2023-08-24T06:18:54;14.35;;;6.03;;
37593;SDS011;23441;50.856;6.076;2023-08-24T06:21:20;9.18;;;5.72;;
37593;SDS011;23441;50.856;6.076;2023-08-24T06:23:46;7.50;;;5.45;;
37593;SDS011;23441;50.856;6.076;2023-08-24T06:26:12;9.70;;;5.90;;
37593;SDS011;23441;50.856;6.076;2023-08-24T06:28:38;8.43;;;5.38;;
37593;SDS011;23441;50.856;6.076;2023-08-24T06:31:04;12.63;;;5.25;;
37593;SDS011;23441;50.856;6.076;2023-08-24T06:33:33;8.70;;;5.30;;
37593;SDS011;23441;50.856;6.076;2023-08-24T06:35:59;9.80;;;5.28;;
37593;SDS011;23441;50.856;6.076;2023-08-24T06:38:26;8.10;;;4.75;;
37593;SDS011;23441;50.856;6.076;2023-08-24T06:40:52;11.35;;;4.97;;
37593;SDS011;23441;50.856;6.076;2023-08-24T06:43:17;6.05;;;4.05;;
37593;SDS011;23441;50.856;6.076;2023-08-24T06:45:46;6.75;;;4.07;;
37593;SDS011;23441;50.856;6.076;2023-08-24T06:48:11;7.85;;;4.18;;
37593;SDS011;23441;50.856;6.076;2023-08-24T06:50:37;6.85;;;3.97;;
37593;SDS011;23441;50.856;6.076;2023-08-24T06:53:03;4.68;;;3.33;;
37593;SDS011;23441;50.856;6.076;2023-08-24T06:55:29;7.60;;;4.18;;
37593;SDS011;23441;50.856;6.076;2023-08-24T06:57:55;5.80;;;3.50;;
37593;SDS011;23441;50.856;6.076;2023-08-24T07:00:20;8.10;;;3.50;;
37593;SDS011;23441;50.856;6.076;2023-08-24T07:02:47;6.60;;;3.67;;
37593;SDS011;23441;50.856;6.076;2023-08-24T07:05:14;6.82;;;3.63;;
37593;SDS011;23441;50.856;6.076;2023-08-24T07:07:40;6.35;;;3.35;;
37593;SDS011;23441;50.856;6.076;2023-08-24T07:10:08;6.60;;;3.15;;
37593;SDS011;23441;50.856;6.076;2023-08-24T07:12:34;5.30;;;3.45;;
37593;SDS011;23441;50.856;6.076;2023-08-24T07:15:00;8.43;;;3.28;;
37593;SDS011;23441;50.856;6.076;2023-08-24T07:17:25;9.07;;;3.50;;
37593;SDS011;23441;50.856;6.076;2023-08-24T07:19:51;6.55;;;3.25;;
37593;SDS011;23441;50.856;6.076;2023-08-24T07:22:16;5.65;;;3.60;;
37593;SDS011;23441;50.856;6.076;2023-08-24T07:24:42;5.43;;;3.20;;
37593;SDS011;23441;50.856;6.076;2023-08-24T07:27:09;6.25;;;3.63;;
37593;SDS011;23441;50.856;6.076;2023-08-24T07:29:34;5.82;;;3.70;;
37593;SDS011;23441;50.856;6.076;2023-08-24T07:38:11;7.38;;;3.33;;
37593;SDS011;23441;50.856;6.076;2023-08-24T07:40:37;4.82;;;2.90;;
37593;SDS011;23441;50.856;6.076;2023-08-24T07:43:02;5.60;;;3.22;;
37593;SDS011;23441;50.856;6.076;2023-08-24T07:45:29;7.68;;;3.05;;
37593;SDS011;23441;50.856;6.076;2023-08-24T07:47:55;6.55;;;3.45;;
37593;SDS011;23441;50.856;6.076;2023-08-24T07:50:20;6.20;;;3.47;;
37593;SDS011;23441;50.856;6.076;2023-08-24T07:52:47;6.25;;;3.40;;
37593;SDS011;23441;50.856;6.076;2023-08-24T07:55:14;6.32;;;2.90;;
37593;SDS011;23441;50.856;6.076;2023-08-24T07:57:41;6.75;;;2.78;;
37593;SDS011;23441;50.856;6.076;2023-08-24T08:00:07;9.88;;;2.80;;
37593;SDS011;23441;50.856;6.076;2023-08-24T08:02:34;4.57;;;2.70;;
37593;SDS011;23441;50.856;6.076;2023-08-24T08:05:02;6.28;;;3.10;;
37593;SDS011;23441;50.856;6.076;2023-08-24T08:07:28;7.25;;;3.00;;
37593;SDS011;23441;50.856;6.076;2023-08-24T08:09:54;4.45;;;2.90;;
37593;SDS011;23441;50.856;6.076;2023-08-24T08:12:21;3.72;;;2.55;;
37593;SDS011;23441;50.856;6.076;2023-08-24T08:14:47;6.28;;;3.00;;
37593;SDS011;23441;50.856;6.076;2023-08-24T08:17:12;5.20;;;2.70;;
37593;SDS011;23441;50.856;6.076;2023-08-24T08:19:38;4.10;;;2.40;;
37593;SDS011;23441;50.856;6.076;2023-08-24T08:22:06;3.67;;;2.72;;
37593;SDS011;23441;50.856;6.076;2023-08-24T08:24:31;5.50;;;2.85;;
37593;SDS011;23441;50.856;6.076;2023-08-24T08:26:57;6.18;;;2.63;;
37593;SDS011;23441;50.856;6.076;2023-08-24T08:46:13;6.00;;;2.50;;
37593;SDS011;23441;50.856;6.076;2023-08-24T08:48:40;5.45;;;2.80;;
37593;SDS011;23441;50.856;6.076;2023-08-24T08:51:06;3.15;;;2.42;;
37593;SDS011;23441;50.856;6.076;2023-08-24T08:53:33;5.63;;;2.58;;
37593;SDS011;23441;50.856;6.076;2023-08-24T08:59:39;6.50;;;2.80;;
37593;SDS011;23441;50.856;6.076;2023-08-24T09:05:28;5.72;;;2.30;;
37593;SDS011;23441;50.856;6.076;2023-08-24T09:07:54;5.43;;;2.65;;
37593;SDS011;23441;50.856;6.076;2023-08-24T09:10:22;7.20;;;2.65;;
37593;SDS011;23441;50.856;6.076;2023-08-24T09:12:48;6.85;;;2.50;;
37593;SDS011;23441;50.856;6.076;2023-08-24T09:15:13;5.88;;;2.42;;
37593;SDS011;23441;50.856;6.076;2023-08-24T09:17:43;3.78;;;2.17;;
37593;SDS011;23441;50.856;6.076;2023-08-24T09:20:09;7.38;;;2.33;;
37593;SDS011;23441;50.856;6.076;2023-08-24T09:22:35;6.93;;;2.65;;
37593;SDS011;23441;50.856;6.076;2023-08-24T09:25:01;7.53;;;2.60;;
37593;SDS011;23441;50.856;6.076;2023-08-24T09:27:29;4.97;;;2.20;;
37593;SDS011;23441;50.856;6.076;2023-08-24T09:29:54;5.80;;;2.75;;
37593;SDS011;23441;50.856;6.076;2023-08-24T09:32:24;5.32;;;2.67;;
37593;SDS011;23441;50.856;6.076;2023-08-24T09:34:52;2.95;;;2.28;;
37593;SDS011;23441;50.856;6.076;2023-08-24T09:37:18;6.05;;;2.72;;
37593;SDS011;23441;50.856;6.076;2023-08-24T09:39:45;7.15;;;2.38;;
37593;SDS011;23441;50.856;6.076;2023-08-24T09:42:12;5.85;;;2.33;;
37593;SDS011;23441;50.856;6.076;2023-08-24T09:44:38;6.70;;;2.60;;
37593;SDS011;23441;50.856;6.076;2023-08-24T09:47:11;8.38;;;2.65;;
37593;SDS011;23441;50.856;6.076;2023-08-24T09:49:36;8.65;;;2.47;;
37593;SDS011;23441;50.856;6.076;2023-08-24T09:52:02;9.55;;;2.80;;
37593;SDS011;23441;50.856;6.076;2023-08-24T09:54:31;5.38;;;2.60;;
37593;SDS011;23441;50.856;6.076;2023-08-24T09:57:00;5.20;;;2.70;;
37593;SDS011;23441;50.856;6.076;2023-08-24T09:59:28;5.47;;;2.80;;
37593;SDS011;23441;50.856;6.076;2023-08-24T10:01:56;6.82;;;2.97;;
37593;SDS011;23441;50.856;6.076;2023-08-24T10:04:25;7.75;;;2.50;;
37593;SDS011;23441;50.856;6.076;2023-08-24T10:07:27;8.57;;;2.80;;
37593;SDS011;23441;50.856;6.076;2023-08-24T10:09:50;5.07;;;2.63;;
37593;SDS011;23441;50.856;6.076;2023-08-24T10:12:23;5.97;;;2.65;;
37593;SDS011;23441;50.856;6.076;2023-08-24T10:15:02;4.72;;;2.40;;
37593;SDS011;23441;50.856;6.076;2023-08-24T10:17:29;7.15;;;2.40;;
37593;SDS011;23441;50.856;6.076;2023-08-24T10:19:58;5.25;;;2.33;;
37593;SDS011;23441;50.856;6.076;2023-08-24T10:22:29;4.10;;;2.35;;
37593;SDS011;23441;50.856;6.076;2023-08-24T10:24:56;6.07;;;2.38;;
37593;SDS011;23441;50.856;6.076;2023-08-24T10:27:26;6.30;;;2.70;;
37593;SDS011;23441;50.856;6.076;2023-08-24T10:29:52;9.85;;;3.20;;
37593;SDS011;23441;50.856;6.076;2023-08-24T10:32:21;7.95;;;2.78;;
37593;SDS011;23441;50.856;6.076;2023-08-24T10:34:48;6.50;;;2.90;;
37593;SDS011;23441;50.856;6.076;2023-08-24T10:37:14;9.25;;;3.10;;
37593;SDS011;23441;50.856;6.076;2023-08-24T10:39:46;10.38;;;2.75;;
37593;SDS011;23441;50.856;6.076;2023-08-24T10:42:12;3.55;;;2.13;;
37593;SDS011;23441;50.856;6.076;2023-08-24T10:44:39;6.93;;;2.65;;
37593;SDS011;23441;50.856;6.076;2023-08-24T10:49:44;6.68;;;2.53;;
37593;SDS011;23441;50.856;6.076;2023-08-24T10:54:49;8.23;;;2.88;;
37593;SDS011;23441;50.856;6.076;2023-08-24T11:02:47;7.70;;;3.38;;
37593;SDS011;23441;50.856;6.076;2023-08-24T11:05:24;13.52;;;3.20;;
37593;SDS011;23441;50.856;6.076;2023-08-24T11:07:59;10.70;;;3.50;;
37593;SDS011;23441;50.856;6.076;2023-08-24T11:13:07;9.88;;;4.07;;
37593;SDS011;23441;50.856;6.076;2023-08-24T11:15:47;9.43;;;3.85;;
37593;SDS011;23441;50.856;6.076;2023-08-24T11:20:51;9.85;;;4.18;;
37593;SDS011;23441;50.856;6.076;2023-08-24T11:23:28;12.05;;;4.82;;
37593;SDS011;23441;50.856;6.076;2023-08-24T11:25:54;9.45;;;4.38;;
37593;SDS011;23441;50.856;6.076;2023-08-24T11:28:31;12.73;;;4.43;;
37593;SDS011;23441;50.856;6.076;2023-08-24T11:30:58;10.50;;;5.15;;
37593;SDS011;23441;50.856;6.076;2023-08-24T11:33:30;9.35;;;5.15;;
37593;SDS011;23441;50.856;6.076;2023-08-24T11:36:00;11.45;;;5.25;;
37593;SDS011;23441;50.856;6.076;2023-08-24T11:38:35;11.55;;;5.13;;
37593;SDS011;23441;50.856;6.076;2023-08-24T11:41:14;9.30;;;5.35;;
37593;SDS011;23441;50.856;6.076;2023-08-24T11:43:41;12.70;;;5.03;;
37593;SDS011;23441;50.856;6.076;2023-08-24T11:46:08;11.25;;;5.25;;
37593;SDS011;23441;50.856;6.076;2023-08-24T11:48:34;9.20;;;5.43;;
37593;SDS011;23441;50.856;6.076;2023-08-24T11:51:01;9.18;;;5.13;;
37593;SDS011;23441;50.856;6.076;2023-08-24T11:53:28;8.57;;;5.22;;
37593;SDS011;23441;50.856;6.076;2023-08-24T11:55:56;11.95;;;5.35;;
37593;SDS011;23441;50.856;6.076;2023-08-24T11:58:22;9.70;;;5.00;;
37593;SDS011;23441;50.856;6.076;2023-08-24T12:00:48;8.82;;;5.50;;
37593;SDS011;23441;50.856;6.076;2023-08-24T12:03:14;10.10;;;5.28;;
37593;SDS011;23441;50.856;6.076;2023-08-24T12:05:40;8.98;;;4.95;;
37593;SDS011;23441;50.856;6.076;2023-08-24T12:08:05;9.65;;;4.68;;
37593;SDS011;23441;50.856;6.076;2023-08-24T12:10:31;7.28;;;5.00;;
37593;SDS011;23441;50.856;6.076;2023-08-24T12:13:01;8.95;;;5.30;;
37593;SDS011;23441;50.856;6.076;2023-08-24T12:15:30;8.77;;;5.22;;
37593;SDS011;23441;50.856;6.076;2023-08-24T12:18:06;9.50;;;4.85;;
37593;SDS011;23441;50.856;6.076;2023-08-24T12:20:33;11.57;;;4.85;;
37593;SDS011;23441;50.856;6.076;2023-08-24T12:22:58;7.43;;;4.38;;
37593;SDS011;23441;50.856;6.076;2023-08-24T12:25:24;11.13;;;3.90;;
37593;SDS011;23441;50.856;6.076;2023-08-24T12:30:45;7.20;;;4.07;;
37593;SDS011;23441;50.856;6.076;2023-08-24T12:33:25;9.55;;;3.58;;
37593;SDS011;23441;50.856;6.076;2023-08-24T12:35:52;5.68;;;3.20;;
37593;SDS011;23441;50.856;6.076;2023-08-24T12:38:20;7.70;;;3.35;;
37593;SDS011;23441;50.856;6.076;2023-08-24T12:40:46;4.68;;;3.33;;
37593;SDS011;23441;50.856;6.076;2023-08-24T12:43:12;7.20;;;3.67;;
37593;SDS011;23441;50.856;6.076;2023-08-24T12:45:38;6.68;;;2.92;;
37593;SDS011;23441;50.856;6.076;2023-08-24T12:48:07;7.85;;;3.13;;
37593;SDS011;23441;50.856;6.076;2023-08-24T12:50:37;4.93;;;2.55;;
37593;SDS011;23441;50.856;6.076;2023-08-24T12:53:03;5.57;;;3.03;;
37593;SDS011;23441;50.856;6.076;2023-08-24T12:55:31;4.70;;;2.88;;
37593;SDS011;23441;50.856;6.076;2023-08-24T12:57:58;5.63;;;2.60;;
37593;SDS011;23441;50.856;6.076;2023-08-24T13:00:24;7.43;;;2.80;;
37593;SDS011;23441;50.856;6.076;2023-08-24T13:02:50;9.88;;;3.08;;
37593;SDS011;23441;50.856;6.076;2023-08-24T13:05:16;7.95;;;2.88;;
37593;SDS011;23441;50.856;6.076;2023-08-24T13:07:42;6.88;;;2.90;;
37593;SDS011;23441;50.856;6.076;2023-08-24T13:10:07;3.70;;;2.50;;
37593;SDS011;23441;50.856;6.076;2023-08-24T13:12:34;7.28;;;3.00;;
37593;SDS011;23441;50.856;6.076;2023-08-24T13:15:01;7.70;;;2.90;;
37593;SDS011;23441;50.856;6.076;2023-08-24T13:17:27;5.70;;;2.90;;
37593;SDS011;23441;50.856;6.076;2023-08-24T13:19:56;5.18;;;2.83;;
37593;SDS011;23441;50.856;6.076;2023-08-24T13:22:22;5.57;;;3.25;;
37593;SDS011;23441;50.856;6.076;2023-08-24T13:24:48;6.47;;;3.03;;
37593;SDS011;23441;50.856;6.076;2023-08-24T13:27:14;7.00;;;3.22;;
37593;SDS011;23441;50.856;6.076;2023-08-24T13:29:42;6.00;;;3.22;;
37593;SDS011;23441;50.856;6.076;2023-08-24T13:32:08;6.93;;;3.10;;
37593;SDS011;23441;50.856;6.076;2023-08-24T13:34:35;6.30;;;2.95;;
37593;SDS011;23441;50.856;6.076;2023-08-24T13:37:01;12.73;;;3.53;;
37593;SDS011;23441;50.856;6.076;2023-08-24T13:39:27;10.98;;;3.20;;
37593;SDS011;23441;50.856;6.076;2023-08-24T13:41:53;7.63;;;3.10;;
37593;SDS011;23441;50.856;6.076;2023-08-24T13:44:22;9.32;;;3.22;;
37593;SDS011;23441;50.856;6.076;2023-08-24T13:46:48;8.77;;;3.53;;
37593;SDS011;23441;50.856;6.076;2023-08-24T13:49:13;7.65;;;4.00;;
37593;SDS011;23441;50.856;6.076;2023-08-24T13:51:39;9.02;;;3.70;;
37593;SDS011;23441;50.856;6.076;2023-08-24T13:54:14;6.40;;;3.30;;
37593;SDS011;23441;50.856;6.076;2023-08-24T13:56:42;9.73;;;4.20;;
37593;SDS011;23441;50.856;6.076;2023-08-24T13:59:11;6.85;;;3.47;;
37593;SDS011;23441;50.856;6.076;2023-08-24T14:01:37;8.93;;;3.60;;
37593;SDS011;23441;50.856;6.076;2023-08-24T14:04:04;8.73;;;3.90;;
37593;SDS011;23441;50.856;6.076;2023-08-24T14:06:30;10.30;;;3.40;;
37593;SDS011;23441;50.856;6.076;2023-08-24T14:08:58;8.25;;;3.70;;
37593;SDS011;23441;50.856;6.076;2023-08-24T14:11:24;8.90;;;3.78;;
37593;SDS011;23441;50.856;6.076;2023-08-24T14:13:51;7.13;;;3.38;;
37593;SDS011;23441;50.856;6.076;2023-08-24T14:16:17;6.40;;;3.25;;
37593;SDS011;23441;50.856;6.076;2023-08-24T14:18:43;7.40;;;3.60;;
37593;SDS011;23441;50.856;6.076;2023-08-24T14:31:17;7.15;;;2.80;;
37593;SDS011;23441;50.856;6.076;2023-08-24T14:37:05;3.67;;;2.22;;
37593;SDS011;23441;50.856;6.076;2023-08-24T14:39:31;5.07;;;2.22;;
37593;SDS011;23441;50.856;6.076;2023-08-24T14:41:57;5.22;;;2.30;;
37593;SDS011;23441;50.856;6.076;2023-08-24T14:44:22;3.28;;;2.28;;
37593;SDS011;23441;50.856;6.076;2023-08-24T14:50:10;7.85;;;2.70;;
37593;SDS011;23441;50.856;6.076;2023-08-24T14:52:35;4.38;;;2.15;;
37593;SDS011;23441;50.856;6.076;2023-08-24T14:55:01;4.35;;;2.00;;
37593;SDS011;23441;50.856;6.076;2023-08-24T14:57:26;3.17;;;2.15;;
37593;SDS011;23441;50.856;6.076;2023-08-24T15:16:42;2.90;;;1.80;;
37593;SDS011;23441;50.856;6.076;2023-08-24T15:19:08;3.55;;;1.77;;
37593;SDS011;23441;50.856;6.076;2023-08-24T15:24:56;2.80;;;1.55;;
37593;SDS011;23441;50.856;6.076;2023-08-24T15:27:23;2.90;;;1.67;;
37593;SDS011;23441;50.856;6.076;2023-08-24T15:29:49;2.53;;;1.35;;
37593;SDS011;23441;50.856;6.076;2023-08-24T15:32:18;3.00;;;1.70;;
37593;SDS011;23441;50.856;6.076;2023-08-24T15:38:06;3.13;;;1.63;;
37593;SDS011;23441;50.856;6.076;2023-08-24T15:40:31;5.95;;;2.28;;
37593;SDS011;23441;50.856;6.076;2023-08-24T15:42:57;3.75;;;1.80;;
37593;SDS011;23441;50.856;6.076;2023-08-24T15:45:24;3.20;;;1.83;;
37593;SDS011;23441;50.856;6.076;2023-08-24T15:47:49;3.95;;;1.70;;
37593;SDS011;23441;50.856;6.076;2023-08-24T15:50:15;3.60;;;1.73;;
37593;SDS011;23441;50.856;6.076;2023-08-24T15:52:40;2.13;;;1.55;;
37593;SDS011;23441;50.856;6.076;2023-08-24T15:55:06;4.03;;;1.73;;
37593;SDS011;23441;50.856;6.076;2023-08-24T15:57:32;3.08;;;1.40;;
37593;SDS011;23441;50.856;6.076;2023-08-24T15:59:58;4.13;;;1.73;;
37593;SDS011;23441;50.856;6.076;2023-08-24T16:02:23;5.35;;;1.98;;
37593;SDS011;23441;50.856;6.076;2023-08-24T16:04:49;2.72;;;1.75;;
37593;SDS011;23441;50.856;6.076;2023-08-24T16:07:15;1.77;;;1.67;;
37593;SDS011;23441;50.856;6.076;2023-08-24T16:09:40;3.33;;;1.73;;
37593;SDS011;23441;50.856;6.076;2023-08-24T16:12:06;2.17;;;1.25;;
